sensor_id;sensor_type;location;lat;lon;timestamp;P1;durP1;ratioP1;P2;durP2;ratioP2
5418;SDS011;2732;52.092;11.556;2022-09-12T00:04:36;6.63;;;5.90;;
5418;SDS011;2732;52.092;11.556;2022-09-12T00:09:37;7.37;;;6.67;;
5418;SDS011;2732;52.092;11.556;2022-09-12T00:14:38;9.33;;;7.00;;
5418;SDS011;2732;52.092;11.556;2022-09-12T00:19:38;7.90;;;7.10;;
5418;SDS011;2732;52.092;11.556;2022-09-12T00:24:39;7.67;;;6.97;;
5418;SDS011;2732;52.092;11.556;2022-09-12T00:29:39;8.13;;;7.33;;
5418;SDS011;2732;52.092;11.556;2022-09-12T00:34:40;7.80;;;7.10;;
5418;SDS011;2732;52.092;11.556;2022-09-12T00:39:41;9.63;;;7.90;;
5418;SDS011;2732;52.092;11.556;2022-09-12T00:44:43;7.97;;;7.27;;
5418;SDS011;2732;52.092;11.556;2022-09-12T01:00:16;10.67;;;7.87;;
5418;SDS011;2732;52.092;11.556;2022-09-12T01:05:21;12.77;;;9.90;;
5418;SDS011;2732;52.092;11.556;2022-09-12T01:10:23;9.90;;;8.90;;
5418;SDS011;2732;52.092;11.556;2022-09-12T01:15:24;8.23;;;7.47;;
5418;SDS011;2732;52.092;11.556;2022-09-12T01:20:29;10.10;;;8.00;;
5418;SDS011;2732;52.092;11.556;2022-09-12T01:25:46;10.70;;;8.03;;
5418;SDS011;2732;52.092;11.556;2022-09-12T01:31:04;7.77;;;7.07;;
5418;SDS011;2732;52.092;11.556;2022-09-12T01:36:34;7.20;;;6.50;;
5418;SDS011;2732;52.092;11.556;2022-09-12T01:52:43;6.40;;;5.90;;
5418;SDS011;2732;52.092;11.556;2022-09-12T01:58:27;6.80;;;5.67;;
5418;SDS011;2732;52.092;11.556;2022-09-12T02:03:29;6.63;;;4.40;;
5418;SDS011;2732;52.092;11.556;2022-09-12T02:08:39;7.20;;;4.43;;
5418;SDS011;2732;52.092;11.556;2022-09-12T02:13:52;4.40;;;4.10;;
5418;SDS011;2732;52.092;11.556;2022-09-12T02:19:03;4.10;;;3.90;;
5418;SDS011;2732;52.092;11.556;2022-09-12T02:24:10;4.47;;;4.17;;
5418;SDS011;2732;52.092;11.556;2022-09-12T02:29:14;3.47;;;3.33;;
5418;SDS011;2732;52.092;11.556;2022-09-12T02:34:25;4.57;;;4.27;;
5418;SDS011;2732;52.092;11.556;2022-09-12T02:39:49;4.77;;;4.37;;
5418;SDS011;2732;52.092;11.556;2022-09-12T02:44:53;4.80;;;4.50;;
5418;SDS011;2732;52.092;11.556;2022-09-12T02:49:55;5.10;;;4.70;;
5418;SDS011;2732;52.092;11.556;2022-09-12T02:54:57;5.20;;;4.90;;
5418;SDS011;2732;52.092;11.556;2022-09-12T02:59:59;5.53;;;5.03;;
5418;SDS011;2732;52.092;11.556;2022-09-12T03:05:20;6.93;;;6.23;;
5418;SDS011;2732;52.092;11.556;2022-09-12T03:10:40;7.40;;;6.57;;
5418;SDS011;2732;52.092;11.556;2022-09-12T03:16:04;6.97;;;6.27;;
5418;SDS011;2732;52.092;11.556;2022-09-12T03:21:27;6.60;;;6.00;;
5418;SDS011;2732;52.092;11.556;2022-09-12T03:31:52;5.87;;;5.40;;
5418;SDS011;2732;52.092;11.556;2022-09-12T03:36:55;6.30;;;5.80;;
5418;SDS011;2732;52.092;11.556;2022-09-12T03:41:55;8.67;;;7.70;;
5418;SDS011;2732;52.092;11.556;2022-09-12T03:46:56;9.03;;;8.23;;
5418;SDS011;2732;52.092;11.556;2022-09-12T03:51:57;10.30;;;9.30;;
5418;SDS011;2732;52.092;11.556;2022-09-12T03:56:58;12.67;;;11.37;;
5418;SDS011;2732;52.092;11.556;2022-09-12T04:01:58;15.60;;;12.73;;
5418;SDS011;2732;52.092;11.556;2022-09-12T04:06:59;15.37;;;13.40;;
5418;SDS011;2732;52.092;11.556;2022-09-12T04:11:59;14.17;;;12.33;;
5418;SDS011;2732;52.092;11.556;2022-09-12T04:17:00;24.43;;;15.50;;
5418;SDS011;2732;52.092;11.556;2022-09-12T04:22:02;16.57;;;13.03;;
5418;SDS011;2732;52.092;11.556;2022-09-12T04:27:03;12.73;;;11.30;;
5418;SDS011;2732;52.092;11.556;2022-09-12T04:32:03;16.30;;;11.20;;
5418;SDS011;2732;52.092;11.556;2022-09-12T04:37:04;12.23;;;11.03;;
5418;SDS011;2732;52.092;11.556;2022-09-12T04:42:05;12.00;;;9.90;;
5418;SDS011;2732;52.092;11.556;2022-09-12T04:47:05;13.50;;;11.47;;
5418;SDS011;2732;52.092;11.556;2022-09-12T04:52:06;13.17;;;11.13;;
5418;SDS011;2732;52.092;11.556;2022-09-12T04:57:07;15.40;;;12.27;;
5418;SDS011;2732;52.092;11.556;2022-09-12T05:02:08;14.17;;;12.07;;
5418;SDS011;2732;52.092;11.556;2022-09-12T05:07:08;12.60;;;11.40;;
5418;SDS011;2732;52.092;11.556;2022-09-12T05:12:09;13.50;;;10.33;;
5418;SDS011;2732;52.092;11.556;2022-09-12T05:17:10;16.80;;;10.80;;
5418;SDS011;2732;52.092;11.556;2022-09-12T05:22:11;11.70;;;10.40;;
5418;SDS011;2732;52.092;11.556;2022-09-12T05:27:11;12.60;;;11.00;;
5418;SDS011;2732;52.092;11.556;2022-09-12T05:32:12;13.47;;;12.07;;
5418;SDS011;2732;52.092;11.556;2022-09-12T05:37:13;12.23;;;10.97;;
5418;SDS011;2732;52.092;11.556;2022-09-12T05:42:13;12.77;;;11.47;;
5418;SDS011;2732;52.092;11.556;2022-09-12T05:47:14;13.73;;;11.37;;
5418;SDS011;2732;52.092;11.556;2022-09-12T05:52:16;15.00;;;13.40;;
5418;SDS011;2732;52.092;11.556;2022-09-12T05:57:17;19.50;;;16.30;;
5418;SDS011;2732;52.092;11.556;2022-09-12T06:02:17;23.50;;;17.73;;
5418;SDS011;2732;52.092;11.556;2022-09-12T06:07:18;23.00;;;19.70;;
5418;SDS011;2732;52.092;11.556;2022-09-12T06:12:18;23.10;;;19.10;;
5418;SDS011;2732;52.092;11.556;2022-09-12T06:17:19;26.23;;;19.90;;
5418;SDS011;2732;52.092;11.556;2022-09-12T06:22:21;24.77;;;21.10;;
5418;SDS011;2732;52.092;11.556;2022-09-12T06:27:21;31.37;;;22.50;;
5418;SDS011;2732;52.092;11.556;2022-09-12T06:32:22;34.40;;;24.47;;
5418;SDS011;2732;52.092;11.556;2022-09-12T06:37:22;33.70;;;24.10;;
5418;SDS011;2732;52.092;11.556;2022-09-12T06:42:23;38.47;;;27.10;;
5418;SDS011;2732;52.092;11.556;2022-09-12T06:47:24;38.90;;;28.30;;
5418;SDS011;2732;52.092;11.556;2022-09-12T06:52:24;36.50;;;28.47;;
5418;SDS011;2732;52.092;11.556;2022-09-12T06:57:25;51.30;;;30.07;;
5418;SDS011;2732;52.092;11.556;2022-09-12T07:02:29;49.00;;;30.40;;
5418;SDS011;2732;52.092;11.556;2022-09-12T07:07:29;47.40;;;30.20;;
5418;SDS011;2732;52.092;11.556;2022-09-12T07:12:33;46.20;;;30.17;;
5418;SDS011;2732;52.092;11.556;2022-09-12T07:17:34;44.70;;;26.50;;
5418;SDS011;2732;52.092;11.556;2022-09-12T07:22:34;45.17;;;23.80;;
5418;SDS011;2732;52.092;11.556;2022-09-12T07:27:35;41.17;;;24.87;;
5418;SDS011;2732;52.092;11.556;2022-09-12T07:32:36;33.20;;;21.07;;
5418;SDS011;2732;52.092;11.556;2022-09-12T07:37:37;24.40;;;16.50;;
5418;SDS011;2732;52.092;11.556;2022-09-12T07:42:38;26.60;;;18.43;;
5418;SDS011;2732;52.092;11.556;2022-09-12T07:47:38;20.87;;;16.27;;
5418;SDS011;2732;52.092;11.556;2022-09-12T07:52:39;22.30;;;16.80;;
5418;SDS011;2732;52.092;11.556;2022-09-12T07:57:40;21.73;;;17.67;;
5418;SDS011;2732;52.092;11.556;2022-09-12T08:02:41;16.80;;;13.13;;
5418;SDS011;2732;52.092;11.556;2022-09-12T08:07:42;18.60;;;13.23;;
5418;SDS011;2732;52.092;11.556;2022-09-12T08:12:42;22.60;;;14.00;;
5418;SDS011;2732;52.092;11.556;2022-09-12T08:17:43;20.47;;;13.13;;
5418;SDS011;2732;52.092;11.556;2022-09-12T08:22:44;21.43;;;14.67;;
5418;SDS011;2732;52.092;11.556;2022-09-12T08:27:44;22.23;;;13.77;;
5418;SDS011;2732;52.092;11.556;2022-09-12T08:32:45;22.70;;;14.10;;
5418;SDS011;2732;52.092;11.556;2022-09-12T08:37:46;17.43;;;12.37;;
5418;SDS011;2732;52.092;11.556;2022-09-12T08:42:56;23.27;;;12.40;;
5418;SDS011;2732;52.092;11.556;2022-09-12T08:48:09;18.43;;;12.27;;
5418;SDS011;2732;52.092;11.556;2022-09-12T08:53:12;15.20;;;11.10;;
5418;SDS011;2732;52.092;11.556;2022-09-12T09:09:03;19.50;;;12.50;;
5418;SDS011;2732;52.092;11.556;2022-09-12T09:19:52;18.53;;;14.10;;
5418;SDS011;2732;52.092;11.556;2022-09-12T09:25:05;19.87;;;12.97;;
5418;SDS011;2732;52.092;11.556;2022-09-12T09:30:18;23.70;;;13.73;;
5418;SDS011;2732;52.092;11.556;2022-09-12T09:35:26;16.80;;;12.43;;
5418;SDS011;2732;52.092;11.556;2022-09-12T09:40:45;15.53;;;11.63;;
5418;SDS011;2732;52.092;11.556;2022-09-12T09:46:11;15.90;;;11.30;;
5418;SDS011;2732;52.092;11.556;2022-09-12T09:51:13;11.93;;;7.30;;
5418;SDS011;2732;52.092;11.556;2022-09-12T09:56:28;10.80;;;8.20;;
5418;SDS011;2732;52.092;11.556;2022-09-12T10:01:35;12.17;;;9.10;;
5418;SDS011;2732;52.092;11.556;2022-09-12T10:06:37;11.20;;;7.80;;
5418;SDS011;2732;52.092;11.556;2022-09-12T10:11:39;7.13;;;6.43;;
5418;SDS011;2732;52.092;11.556;2022-09-12T10:16:49;12.37;;;7.63;;
5418;SDS011;2732;52.092;11.556;2022-09-12T10:21:55;7.43;;;6.63;;
5418;SDS011;2732;52.092;11.556;2022-09-12T10:26:57;6.87;;;5.80;;
5418;SDS011;2732;52.092;11.556;2022-09-12T10:32:18;5.60;;;4.90;;
5418;SDS011;2732;52.092;11.556;2022-09-12T10:37:34;4.70;;;4.40;;
5418;SDS011;2732;52.092;11.556;2022-09-12T10:42:46;5.80;;;5.20;;
5418;SDS011;2732;52.092;11.556;2022-09-12T10:47:52;6.80;;;4.00;;
5418;SDS011;2732;52.092;11.556;2022-09-12T11:20:52;5.93;;;3.30;;
5418;SDS011;2732;52.092;11.556;2022-09-12T11:42:25;4.00;;;3.10;;
5418;SDS011;2732;52.092;11.556;2022-09-12T11:47:33;3.00;;;2.80;;
5418;SDS011;2732;52.092;11.556;2022-09-12T11:52:36;2.07;;;1.90;;
5418;SDS011;2732;52.092;11.556;2022-09-12T11:57:57;2.60;;;2.50;;
5418;SDS011;2732;52.092;11.556;2022-09-12T12:03:03;3.10;;;2.47;;
5418;SDS011;2732;52.092;11.556;2022-09-12T12:08:05;2.53;;;2.07;;
5418;SDS011;2732;52.092;11.556;2022-09-12T12:13:24;2.17;;;2.07;;
5418;SDS011;2732;52.092;11.556;2022-09-12T12:18:36;6.43;;;1.97;;
5418;SDS011;2732;52.092;11.556;2022-09-12T12:23:38;2.53;;;1.67;;
5418;SDS011;2732;52.092;11.556;2022-09-12T12:38:53;4.63;;;1.60;;
5418;SDS011;2732;52.092;11.556;2022-09-12T12:43:54;1.53;;;1.40;;
5418;SDS011;2732;52.092;11.556;2022-09-12T12:48:59;1.10;;;1.07;;
5418;SDS011;2732;52.092;11.556;2022-09-12T12:54:54;1.37;;;1.13;;
5418;SDS011;2732;52.092;11.556;2022-09-12T12:59:32;1.30;;;0.83;;
5418;SDS011;2732;52.092;11.556;2022-09-12T13:04:33;1.40;;;1.30;;
5418;SDS011;2732;52.092;11.556;2022-09-12T13:19:49;1.30;;;1.20;;
5418;SDS011;2732;52.092;11.556;2022-09-12T13:25:00;0.80;;;0.80;;
5418;SDS011;2732;52.092;11.556;2022-09-12T13:30:07;1.17;;;1.07;;
5418;SDS011;2732;52.092;11.556;2022-09-12T13:36:19;1.20;;;1.10;;
5418;SDS011;2732;52.092;11.556;2022-09-12T13:46:47;1.10;;;1.10;;
5418;SDS011;2732;52.092;11.556;2022-09-12T13:52:05;0.90;;;0.90;;
5418;SDS011;2732;52.092;11.556;2022-09-12T13:57:18;0.80;;;0.80;;
5418;SDS011;2732;52.092;11.556;2022-09-12T14:02:33;1.87;;;1.07;;
5418;SDS011;2732;52.092;11.556;2022-09-12T14:07:40;1.60;;;0.83;;
5418;SDS011;2732;52.092;11.556;2022-09-12T14:13:01;0.97;;;0.97;;
5418;SDS011;2732;52.092;11.556;2022-09-12T14:18:49;0.73;;;0.67;;
5418;SDS011;2732;52.092;11.556;2022-09-12T14:23:44;0.80;;;0.70;;
5418;SDS011;2732;52.092;11.556;2022-09-12T14:28:47;1.83;;;0.87;;
5418;SDS011;2732;52.092;11.556;2022-09-12T14:33:52;1.77;;;0.90;;
5418;SDS011;2732;52.092;11.556;2022-09-12T14:38:56;1.27;;;1.00;;
5418;SDS011;2732;52.092;11.556;2022-09-12T14:44:03;0.83;;;0.80;;
5418;SDS011;2732;52.092;11.556;2022-09-12T14:49:17;1.17;;;0.93;;
5418;SDS011;2732;52.092;11.556;2022-09-12T14:54:33;2.50;;;0.80;;
5418;SDS011;2732;52.092;11.556;2022-09-12T14:59:37;2.20;;;0.70;;
5418;SDS011;2732;52.092;11.556;2022-09-12T15:04:39;3.00;;;0.90;;
5418;SDS011;2732;52.092;11.556;2022-09-12T15:09:42;2.70;;;0.90;;
5418;SDS011;2732;52.092;11.556;2022-09-12T15:14:43;1.00;;;0.80;;
5418;SDS011;2732;52.092;11.556;2022-09-12T15:19:44;9.30;;;0.80;;
5418;SDS011;2732;52.092;11.556;2022-09-12T15:24:44;2.93;;;0.90;;
5418;SDS011;2732;52.092;11.556;2022-09-12T15:29:45;1.43;;;0.80;;
5418;SDS011;2732;52.092;11.556;2022-09-12T15:34:46;1.13;;;0.67;;
5418;SDS011;2732;52.092;11.556;2022-09-12T15:39:46;1.90;;;0.60;;
5418;SDS011;2732;52.092;11.556;2022-09-12T15:44:47;0.60;;;0.60;;
5418;SDS011;2732;52.092;11.556;2022-09-12T15:49:48;1.00;;;1.00;;
5418;SDS011;2732;52.092;11.556;2022-09-12T15:54:49;3.13;;;0.80;;
5418;SDS011;2732;52.092;11.556;2022-09-12T15:59:50;0.90;;;0.90;;
5418;SDS011;2732;52.092;11.556;2022-09-12T16:04:50;2.30;;;1.40;;
5418;SDS011;2732;52.092;11.556;2022-09-12T16:09:53;1.50;;;1.40;;
5418;SDS011;2732;52.092;11.556;2022-09-12T16:14:54;1.47;;;1.37;;
5418;SDS011;2732;52.092;11.556;2022-09-12T16:19:54;1.20;;;1.00;;
5418;SDS011;2732;52.092;11.556;2022-09-12T16:24:55;2.27;;;0.70;;
5418;SDS011;2732;52.092;11.556;2022-09-12T16:29:56;1.00;;;1.00;;
5418;SDS011;2732;52.092;11.556;2022-09-12T16:34:56;1.57;;;1.40;;
5418;SDS011;2732;52.092;11.556;2022-09-12T16:39:57;1.03;;;1.03;;
5418;SDS011;2732;52.092;11.556;2022-09-12T16:44:58;1.00;;;1.00;;
5418;SDS011;2732;52.092;11.556;2022-09-12T16:49:59;1.30;;;1.20;;
5418;SDS011;2732;52.092;11.556;2022-09-12T16:55:00;1.07;;;1.07;;
5418;SDS011;2732;52.092;11.556;2022-09-12T17:00:01;4.27;;;1.30;;
5418;SDS011;2732;52.092;11.556;2022-09-12T17:05:06;1.40;;;1.30;;
5418;SDS011;2732;52.092;11.556;2022-09-12T17:10:09;1.17;;;1.17;;
5418;SDS011;2732;52.092;11.556;2022-09-12T17:15:10;1.00;;;0.90;;
5418;SDS011;2732;52.092;11.556;2022-09-12T17:20:11;2.63;;;1.20;;
5418;SDS011;2732;52.092;11.556;2022-09-12T17:25:12;6.93;;;1.43;;
5418;SDS011;2732;52.092;11.556;2022-09-12T17:30:16;2.10;;;1.23;;
5418;SDS011;2732;52.092;11.556;2022-09-12T17:35:18;1.60;;;1.17;;
5418;SDS011;2732;52.092;11.556;2022-09-12T17:40:21;1.20;;;1.10;;
5418;SDS011;2732;52.092;11.556;2022-09-12T17:45:23;0.93;;;0.90;;
5418;SDS011;2732;52.092;11.556;2022-09-12T17:50:24;3.27;;;1.03;;
5418;SDS011;2732;52.092;11.556;2022-09-12T17:55:28;1.90;;;1.17;;
5418;SDS011;2732;52.092;11.556;2022-09-12T18:00:31;1.57;;;1.13;;
5418;SDS011;2732;52.092;11.556;2022-09-12T18:05:52;5.90;;;1.10;;
5418;SDS011;2732;52.092;11.556;2022-09-12T18:11:01;2.90;;;1.40;;
5418;SDS011;2732;52.092;11.556;2022-09-12T18:16:04;2.10;;;1.90;;
5418;SDS011;2732;52.092;11.556;2022-09-12T18:21:08;4.50;;;1.90;;
5418;SDS011;2732;52.092;11.556;2022-09-12T18:26:10;3.73;;;1.60;;
5418;SDS011;2732;52.092;11.556;2022-09-12T18:31:14;2.23;;;1.70;;
5418;SDS011;2732;52.092;11.556;2022-09-12T18:36:17;2.23;;;1.80;;
5418;SDS011;2732;52.092;11.556;2022-09-12T18:41:20;4.27;;;1.80;;
5418;SDS011;2732;52.092;11.556;2022-09-12T18:46:22;2.37;;;2.17;;
5418;SDS011;2732;52.092;11.556;2022-09-12T18:51:24;3.00;;;2.27;;
5418;SDS011;2732;52.092;11.556;2022-09-12T18:56:31;3.03;;;2.77;;
5418;SDS011;2732;52.092;11.556;2022-09-12T19:01:36;2.40;;;2.20;;
5418;SDS011;2732;52.092;11.556;2022-09-12T19:06:38;6.53;;;2.23;;
5418;SDS011;2732;52.092;11.556;2022-09-12T19:11:42;2.87;;;2.10;;
5418;SDS011;2732;52.092;11.556;2022-09-12T19:16:48;3.97;;;2.57;;
5418;SDS011;2732;52.092;11.556;2022-09-12T19:21:49;2.33;;;2.17;;
5418;SDS011;2732;52.092;11.556;2022-09-12T19:26:50;2.73;;;2.53;;
5418;SDS011;2732;52.092;11.556;2022-09-12T19:31:51;2.97;;;2.67;;
5418;SDS011;2732;52.092;11.556;2022-09-12T19:36:52;4.13;;;3.30;;
5418;SDS011;2732;52.092;11.556;2022-09-12T19:41:53;3.03;;;2.93;;
5418;SDS011;2732;52.092;11.556;2022-09-12T19:46:54;3.30;;;3.20;;
5418;SDS011;2732;52.092;11.556;2022-09-12T19:51:54;4.67;;;3.30;;
5418;SDS011;2732;52.092;11.556;2022-09-12T19:56:55;3.90;;;3.40;;
5418;SDS011;2732;52.092;11.556;2022-09-12T20:01:55;10.83;;;3.90;;
5418;SDS011;2732;52.092;11.556;2022-09-12T20:06:56;4.20;;;4.00;;
5418;SDS011;2732;52.092;11.556;2022-09-12T20:11:57;4.93;;;3.50;;
5418;SDS011;2732;52.092;11.556;2022-09-12T20:16:57;4.60;;;4.30;;
5418;SDS011;2732;52.092;11.556;2022-09-12T20:21:58;5.10;;;4.60;;
5418;SDS011;2732;52.092;11.556;2022-09-12T20:26:59;5.63;;;4.87;;
5418;SDS011;2732;52.092;11.556;2022-09-12T20:31:59;8.30;;;4.37;;
5418;SDS011;2732;52.092;11.556;2022-09-12T20:37:00;9.50;;;4.83;;
5418;SDS011;2732;52.092;11.556;2022-09-12T20:42:01;4.87;;;4.47;;
5418;SDS011;2732;52.092;11.556;2022-09-12T20:47:02;6.47;;;5.73;;
5418;SDS011;2732;52.092;11.556;2022-09-12T20:52:03;6.93;;;5.30;;
5418;SDS011;2732;52.092;11.556;2022-09-12T20:57:04;8.83;;;5.20;;
5418;SDS011;2732;52.092;11.556;2022-09-12T21:02:04;6.00;;;5.60;;
5418;SDS011;2732;52.092;11.556;2022-09-12T21:07:05;7.10;;;5.30;;
5418;SDS011;2732;52.092;11.556;2022-09-12T21:12:05;10.43;;;6.63;;
5418;SDS011;2732;52.092;11.556;2022-09-12T21:17:06;6.37;;;5.87;;
5418;SDS011;2732;52.092;11.556;2022-09-12T21:22:07;8.97;;;5.90;;
5418;SDS011;2732;52.092;11.556;2022-09-12T21:27:07;7.10;;;5.70;;
5418;SDS011;2732;52.092;11.556;2022-09-12T21:32:08;6.13;;;5.60;;
5418;SDS011;2732;52.092;11.556;2022-09-12T21:37:09;5.70;;;5.30;;
5418;SDS011;2732;52.092;11.556;2022-09-12T21:42:09;6.67;;;6.13;;
5418;SDS011;2732;52.092;11.556;2022-09-12T21:47:10;6.73;;;6.10;;
5418;SDS011;2732;52.092;11.556;2022-09-12T21:52:10;6.47;;;5.67;;
5418;SDS011;2732;52.092;11.556;2022-09-12T21:57:11;8.23;;;6.37;;
5418;SDS011;2732;52.092;11.556;2022-09-12T22:02:12;5.87;;;5.47;;
5418;SDS011;2732;52.092;11.556;2022-09-12T22:07:12;6.37;;;5.77;;
5418;SDS011;2732;52.092;11.556;2022-09-12T22:12:13;6.97;;;6.03;;
5418;SDS011;2732;52.092;11.556;2022-09-12T22:17:14;12.80;;;6.40;;
5418;SDS011;2732;52.092;11.556;2022-09-12T22:22:15;9.93;;;6.40;;
5418;SDS011;2732;52.092;11.556;2022-09-12T22:27:34;6.90;;;6.40;;
5418;SDS011;2732;52.092;11.556;2022-09-12T22:32:35;7.17;;;6.47;;
5418;SDS011;2732;52.092;11.556;2022-09-12T22:37:38;12.17;;;6.23;;
5418;SDS011;2732;52.092;11.556;2022-09-12T22:42:39;8.90;;;6.70;;
5418;SDS011;2732;52.092;11.556;2022-09-12T22:47:39;7.03;;;6.40;;
5418;SDS011;2732;52.092;11.556;2022-09-12T22:52:40;8.27;;;7.10;;
5418;SDS011;2732;52.092;11.556;2022-09-12T22:57:41;7.90;;;7.10;;
5418;SDS011;2732;52.092;11.556;2022-09-12T23:02:43;9.93;;;7.10;;
5418;SDS011;2732;52.092;11.556;2022-09-12T23:07:45;8.40;;;7.50;;
5418;SDS011;2732;52.092;11.556;2022-09-12T23:12:45;11.40;;;6.30;;
5418;SDS011;2732;52.092;11.556;2022-09-12T23:17:46;9.47;;;6.60;;
5418;SDS011;2732;52.092;11.556;2022-09-12T23:22:47;7.47;;;6.70;;
5418;SDS011;2732;52.092;11.556;2022-09-12T23:27:48;10.43;;;7.03;;
5418;SDS011;2732;52.092;11.556;2022-09-12T23:32:50;11.57;;;6.90;;
5418;SDS011;2732;52.092;11.556;2022-09-12T23:37:50;9.53;;;6.97;;
5418;SDS011;2732;52.092;11.556;2022-09-12T23:42:51;8.60;;;7.60;;
5418;SDS011;2732;52.092;11.556;2022-09-12T23:47:51;8.80;;;6.73;;
5418;SDS011;2732;52.092;11.556;2022-09-12T23:52:52;8.67;;;7.93;;
5418;SDS011;2732;52.092;11.556;2022-09-12T23:57:52;10.73;;;8.10;;
